Other Surface Observations
Issued by NWS

Home | Current Version | Previous Version | Text Only | Print | Product List | Glossary On
Versions: 1 2 3 4 5 6 7 8 9 10 11 12 13 14 15 16 17 18 19 20 21 22 23 24 25 26 27 28 29 30 31 32 33 34 35 36 37 38 39 40 41 42 43 44 45 46 47 48 49 50
610
SXUS51 KWBC 152209
OSONT
:SHEF ENCODED 6-MINUTE NOS MET DATA
:NATIONAL WATER LEVEL OBSERVATION NETWORK (NWLON)
:TA(AIR TEMP DEG F)  SLP(SEA LEVEL PRESSURE INCHES)
:UD(WIND DIRECTION WHOLE DEGREES) US (WIND SPEED MPH)
:TW(WATER TEMP DEG F) UG(WIND GUSTS MPH) WC(CONDUCTIVITY uMHOS/CM)
:-9999 (MISSING VALUES)
:PROVIDED BY DOC/NOAA/NOS/CO-OPS, (301) 713-2540
:corms@noaa.gov
.E FRCB6 20190715 Z DH2136/TAIRG/DIN06/   84/   84/   84
.E FRCB6 20190715 Z DH2136/PLIRG/DIN06/30.12/30.12/30.12
.E FRCB6 20190715 Z DH2136/TWIRG/DIN06/   86/   86/   86
.E BEPB6 20190715 Z DH2142/TAIRG/DIN06/   82/   82
.E BEPB6 20190715 Z DH2142/PLIRG/DIN06/30.11/30.11
.E BEPB6 20190715 Z DH2142/USIRG/DIN06/   13/   13
.E BEPB6 20190715 Z DH2142/UDIRG/DIN06/  275/  272
.E BEPB6 20190715 Z DH2142/UGIRG/DIN06/   15/   16
.E BEPB6 20190715 Z DH2142/TWIRG/DIN06/   85/   85
.E PSBM1 20190715 Z DH2136/TAIRG/DIN06/   77/   75/   75
.E PSBM1 20190715 Z DH2136/PLIRG/DIN06/29.88/29.88/29.88
.E PSBM1 20190715 Z DH2136/USIRG/DIN06/    7/    9/    7
.E PSBM1 20190715 Z DH2136/UDIRG/DIN06/  293/  318/  314
.E PSBM1 20190715 Z DH2136/UGIRG/DIN06/   12/   11/    9
.E PSBM1 20190715 Z DH2136/TWIRG/DIN06/   51/   51/   51
.E CFWM1 20190715 Z DH2136/TAIRG/DIN06/   75/   75/   75
.E CFWM1 20190715 Z DH2136/PLIRG/DIN06/29.85/29.85/29.85
.E CFWM1 20190715 Z DH2136/USIRG/DIN06/    4/    6/    7
.E CFWM1 20190715 Z DH2136/UDIRG/DIN06/  295/  297/  287
.E CFWM1 20190715 Z DH2136/UGIRG/DIN06/    9/    7/    9
.E CFWM1 20190715 Z DH2136/TWIRG/DIN06/   52/   52/   52
.E ATGM1 20190715 Z DH2148/TAIRG/DIN06/   76/-9999/   76
.E ATGM1 20190715 Z DH2148/PLIRG/DIN06/29.89/-9999/29.89
.E ATGM1 20190715 Z DH2148/USIRG/DIN06/    9/-9999/    7
.E ATGM1 20190715 Z DH2148/UDIRG/DIN06/    3/-9999/  351
.E ATGM1 20190715 Z DH2148/UGIRG/DIN06/   12/-9999/   10
.E ATGM1 20190715 Z DH2148/TWIRG/DIN06/   59/-9999/   59
.E CASM1 20190715 Z DH2136/TAIRG/DIN06/   82/   82/   82
.E CASM1 20190715 Z DH2136/TWIRG/DIN06/   62/   62/   63
.E WELM1 20190715 Z DH2148/TAIRG/DIN06/   82/-9999/   82
.E WELM1 20190715 Z DH2148/PLIRG/DIN06/29.95/-9999/29.95
.E WELM1 20190715 Z DH2148/USIRG/DIN06/    9/-9999/    8
.E WELM1 20190715 Z DH2148/UDIRG/DIN06/  316/-9999/  309
.E WELM1 20190715 Z DH2148/UGIRG/DIN06/   15/-9999/   14
.E WELM1 20190715 Z DH2148/TWIRG/DIN06/   65/-9999/   65
.E BHBM3 20190715 Z DH2136/TAIRG/DIN06/   83/   82/   82
.E BHBM3 20190715 Z DH2136/PLIRG/DIN06/29.97/29.97/29.97
.E FRVM3 20190715 Z DH2136/TAIRG/DIN06/   81/   81/   82
.E FRVM3 20190715 Z DH2136/PLIRG/DIN06/29.99/30.00/30.00
.E BLTM3 20190715 Z DH2200/TAIRP/DIN06/   82/   84
.E BLTM3 20190715 Z DH2200/PLIRP/DIN06/29.98/29.98
.E BLTM3 20190715 Z DH2200/USIRP/DIN06/   12/   11
.E BLTM3 20190715 Z DH2200/UDIRP/DIN06/  285/  311
.E BLTM3 20190715 Z DH2200/UGIRP/DIN06/   15/   15
.E BLTM3 20190715 Z DH2148/TAIRG/DIN06/   83/   82
.E BLTM3 20190715 Z DH2148/PLIRG/DIN06/29.98/29.98
.E BLTM3 20190715 Z DH2148/USIRG/DIN06/    6/   12
.E BLTM3 20190715 Z DH2148/UDIRG/DIN06/  292/  285
.E BLTM3 20190715 Z DH2148/UGIRG/DIN06/    8/   15
.E FRXM3 20190715 Z DH2142/TAIRG/DIN06/   81/   82
.E BZBM3 20190715 Z DH2142/TAIRG/DIN06/   76/   75
.E BZBM3 20190715 Z DH2142/PLIRG/DIN06/29.98/29.98
.E BZBM3 20190715 Z DH2142/TWIRG/DIN06/   73/   73
.E NTKM3 20190715 Z DH2148/TAIRP/DIN06/   73/   73
.E NTKM3 20190715 Z DH2148/PLIRP/DIN06/29.99/29.99
.E NTKM3 20190715 Z DH2148/USIRP/DIN06/    9/    9
.E NTKM3 20190715 Z DH2148/UDIRP/DIN06/  248/  254
.E NTKM3 20190715 Z DH2148/UGIRP/DIN06/   15/   12
.E NTKM3 20190715 Z DH2148/TWIRP/DIN06/   76/   76
.E PRUR1 20190715 Z DH2148/TAIRG/DIN06/   82/-9999/   82
.E NWPR1 20190715 Z DH2136/TAIRG/DIN06/   73/   74/   74
.E NWPR1 20190715 Z DH2136/PLIRG/DIN06/29.99/29.98/29.98
.E NWPR1 20190715 Z DH2136/USIRG/DIN06/   10/   10/   11
.E NWPR1 20190715 Z DH2136/UDIRG/DIN06/  216/  219/  214
.E NWPR1 20190715 Z DH2136/UGIRG/DIN06/   16/   16/   15
.E NWPR1 20190715 Z DH2136/WCIRG/DIN06/42670/42680/42630
.E NWPR1 20190715 Z DH2136/TWIRG/DIN06/   68/   67/   68
.E CPTR1 20190715 Z DH2154/TAIRP/DIN06/   80/   81
.E CPTR1 20190715 Z DH2154/PLIRP/DIN06/29.98/29.98
.E CPTR1 20190715 Z DH2154/USIRP/DIN06/   11/   11
.E CPTR1 20190715 Z DH2154/UDIRP/DIN06/  306/  300
.E CPTR1 20190715 Z DH2154/UGIRP/DIN06/   13/   12
.E CPTR1 20190715 Z DH2154/TWIRP/DIN06/   75/   76
.E CPTR1 20190715 Z DH2142/TAIRG/DIN06/   81/-9999/   80
.E CPTR1 20190715 Z DH2142/PLIRG/DIN06/29.98/-9999/29.98
.E CPTR1 20190715 Z DH2142/USIRG/DIN06/   10/-9999/    7
.E CPTR1 20190715 Z DH2142/UDIRG/DIN06/  291/-9999/  302
.E CPTR1 20190715 Z DH2142/UGIRG/DIN06/   12/-9999/   11
.E CPTR1 20190715 Z DH2142/TWIRG/DIN06/   76/-9999/   75
.E PTCR1 20190715 Z DH2200/TAIRP/DIN06/   82/   81
.E PTCR1 20190715 Z DH2200/PLIRP/DIN06/30.00/29.99
.E PTCR1 20190715 Z DH2200/USIRP/DIN06/    3/    3
.E PTCR1 20190715 Z DH2200/UDIRP/DIN06/  321/  323
.E PTCR1 20190715 Z DH2200/UGIRP/DIN06/    8/    6
.E PTCR1 20190715 Z DH2142/TAIRG/DIN06/   82/   83
.E PTCR1 20190715 Z DH2142/PLIRG/DIN06/30.00/30.00
.E PTCR1 20190715 Z DH2142/USIRG/DIN06/    4/    3
.E PTCR1 20190715 Z DH2142/UDIRG/DIN06/  333/  335
.E PTCR1 20190715 Z DH2142/UGIRG/DIN06/    7/    6
.E FOXR1 20190715 Z DH2154/TAIRP/DIN06/   83/   83
.E FOXR1 20190715 Z DH2154/PLIRP/DIN06/29.97/29.97
.E FOXR1 20190715 Z DH2154/USIRP/DIN06/    8/    5
.E FOXR1 20190715 Z DH2154/UDIRP/DIN06/  320/  320
.E FOXR1 20190715 Z DH2154/UGIRP/DIN06/   12/   11
.E FOXR1 20190715 Z DH2154/TWIRP/DIN06/   71/   71
.E FOXR1 20190715 Z DH2142/TAIRG/DIN06/   84/   83
.E FOXR1 20190715 Z DH2142/PLIRG/DIN06/29.97/29.97
.E FOXR1 20190715 Z DH2142/USIRG/DIN06/    4/    7
.E FOXR1 20190715 Z DH2142/UDIRG/DIN06/  340/   41
.E FOXR1 20190715 Z DH2142/UGIRG/DIN06/   11/   12
.E FOXR1 20190715 Z DH2142/TWIRG/DIN06/   71/   71
.E QPTR1 20190715 Z DH2130/TAIRG/DIN06/   83/   83/   83/-9999/   83
.E QPTR1 20190715 Z DH2130/PLIRG/DIN06/29.99/29.99/29.99/-9999/29.99
.E QPTR1 20190715 Z DH2130/USIRG/DIN06/    7/    9/    7/-9999/    7
.E QPTR1 20190715 Z DH2130/UDIRG/DIN06/  291/  298/  300/-9999/  296
.E QPTR1 20190715 Z DH2130/UGIRG/DIN06/   11/   12/   12/-9999/   11
.E QPTR1 20190715 Z DH2130/WCIRG/DIN06/33680/33620/33640/-9999/33390
.E QPTR1 20190715 Z DH2130/TWIRG/DIN06/   76/   75/   75/-9999/   74
.E NLNC3 20190715 Z DH2148/TAIRG/DIN06/   83/-9999/   83
.E NLNC3 20190715 Z DH2148/PLIRG/DIN06/29.98/-9999/29.98
.E NLNC3 20190715 Z DH2148/USIRG/DIN06/    5/-9999/    9
.E NLNC3 20190715 Z DH2148/UDIRG/DIN06/  248/-9999/  244
.E NLNC3 20190715 Z DH2148/UGIRG/DIN06/   10/-9999/   13
.E NLNC3 20190715 Z DH2148/TWIRG/DIN06/   69/-9999/   68
.E NWHC3 20190715 Z DH2154/TAIRP/DIN06/   76/   77
.E NWHC3 20190715 Z DH2154/PLIRP/DIN06/30.00/29.99
.E NWHC3 20190715 Z DH2154/USIRP/DIN06/   11/    9
.E NWHC3 20190715 Z DH2154/UDIRP/DIN06/  226/  217
.E NWHC3 20190715 Z DH2154/UGIRP/DIN06/   13/   12
.E NWHC3 20190715 Z DH2154/TWIRP/DIN06/   76/   76
.E BRHC3 20190715 Z DH2142/TAIRG/DIN06/   82/-9999/   82
.E BRHC3 20190715 Z DH2142/PLIRG/DIN06/29.97/-9999/29.97
.E BRHC3 20190715 Z DH2142/USIRG/DIN06/    9/-9999/   10
.E BRHC3 20190715 Z DH2142/UDIRG/DIN06/  217/-9999/  216
.E BRHC3 20190715 Z DH2142/UGIRG/DIN06/   15/-9999/   14
.E BRHC3 20190715 Z DH2142/TWIRG/DIN06/   71/-9999/   71
.A MTKN6 20190715 Z DH2148/TAIRG    76/UGIRG -9999/PLIRG 30.00/UDIRG -9999/USIRG -9999/TWIRG    74/WCIRG -9999
.E KPTN6 20190715 Z DH2142/PLIRG/DIN06/30.02/30.01
.E KPTN6 20190715 Z DH2142/TWIRG/DIN06/   72/   72
.E BATN6 20190715 Z DH2148/TAIRP/DIN06/   83/   84
.E BATN6 20190715 Z DH2148/PLIRP/DIN06/30.00/30.00
.E BATN6 20190715 Z DH2148/TWIRP/DIN06/   73/   73
.E BATN6 20190715 Z DH2148/TAIRG/DIN06/   83/-9999/   84
.E BATN6 20190715 Z DH2148/PLIRG/DIN06/30.00/-9999/30.00
.E BATN6 20190715 Z DH2148/TWIRG/DIN06/   73/-9999/   73
.E TKPN6 20190715 Z DH2142/TAIRG/DIN06/   83/   83
.E TKPN6 20190715 Z DH2142/PLIRG/DIN06/30.00/30.00
.E TKPN6 20190715 Z DH2142/USIRG/DIN06/    9/   11
.E TKPN6 20190715 Z DH2142/UDIRG/DIN06/   13/   11
.E TKPN6 20190715 Z DH2142/UGIRG/DIN06/   13/   15
.E TKPN6 20190715 Z DH2142/TWIRG/DIN06/   81/   81
.E BGNN6 20190715 Z DH2142/TAIRG/DIN06/   85/-9999/   85
.E BGNN6 20190715 Z DH2142/PLIRG/DIN06/30.01/-9999/30.00
.E BGNN6 20190715 Z DH2142/TWIRG/DIN06/   76/-9999/   76
.A ROBN4 20190715 Z DH2148/TAIRG    85/UGIRG    12/PLIRG 30.00/UDIRG   283/USIRG    10/TWIRG -9999/WCIRG -9999
.E SDHN4 20190715 Z DH2154/TAIRP/DIN06/   82/   82
.E SDHN4 20190715 Z DH2154/PLIRP/DIN06/30.01/30.01
.E SDHN4 20190715 Z DH2154/USIRP/DIN06/    9/   10
.E SDHN4 20190715 Z DH2154/UDIRP/DIN06/  258/  261
.E SDHN4 20190715 Z DH2154/UGIRP/DIN06/   12/   11
.E SDHN4 20190715 Z DH2154/TWIRP/DIN06/   78/   78
.E SDHN4 20190715 Z DH2142/TAIRG/DIN06/   80/   81
.E SDHN4 20190715 Z DH2142/PLIRG/DIN06/30.01/30.01
.E SDHN4 20190715 Z DH2142/USIRG/DIN06/    6/    4
.E SDHN4 20190715 Z DH2142/UDIRG/DIN06/  208/  233
.E SDHN4 20190715 Z DH2142/UGIRG/DIN06/   11/    6
.E SDHN4 20190715 Z DH2142/TWIRG/DIN06/   75/   77
.A ACYN4 20190715 Z DH2148/TAIRG    77/UGIRG -9999/PLIRG 30.04/UDIRG -9999/USIRG -9999/TWIRG    75/WCIRG -9999
.E CMAN4 20190715 Z DH2148/TAIRG/DIN06/   79/-9999/   78
.E CMAN4 20190715 Z DH2148/PLIRG/DIN06/30.03/-9999/30.03
.E CMAN4 20190715 Z DH2148/USIRG/DIN06/    6/-9999/    7
.E CMAN4 20190715 Z DH2148/UDIRG/DIN06/  216/-9999/  205
.E CMAN4 20190715 Z DH2148/UGIRG/DIN06/    7/-9999/    8
.E CMAN4 20190715 Z DH2148/WCIRG/DIN06/44990/-9999/45070
.E CMAN4 20190715 Z DH2148/TWIRG/DIN06/   75/-9999/   75
.E BDRN4 20190715 Z DH2154/USIRP/DIN06/    3/    5
.E BDRN4 20190715 Z DH2154/UDIRP/DIN06/  327/  316
.E BDRN4 20190715 Z DH2154/UGIRP/DIN06/    6/    9
.E BDRN4 20190715 Z DH2136/TAIRG/DIN06/   85/   85/   85
.E BDRN4 20190715 Z DH2136/PLIRG/DIN06/30.01/30.01/30.01
.E BDRN4 20190715 Z DH2136/TWIRG/DIN06/   78/   78/   78
.E MRCP1 20190715 Z DH2136/TAIRG/DIN06/   86/   86/   86
.E MRCP1 20190715 Z DH2136/PLIRG/DIN06/30.02/30.02/30.02
.E MRCP1 20190715 Z DH2136/TWIRG/DIN06/   81/   81/   81
.E PHBP1 20190715 Z DH2142/TAIRG/DIN06/   88/   89
.E PHBP1 20190715 Z DH2142/PLIRG/DIN06/30.01/30.00
.E PHBP1 20190715 Z DH2142/TWIRG/DIN06/   80/   80
.A BDSP1 20190715 Z DH2148/TAIRG    86/UGIRG -9999/PLIRG 30.02/UDIRG -9999/USIRG -9999/TWIRG    81/WCIRG -9999
.E NBLP1 20190715 Z DH2154/USIRP/DIN06/    6/    7
.E NBLP1 20190715 Z DH2154/UDIRP/DIN06/  314/  296
.E NBLP1 20190715 Z DH2154/UGIRP/DIN06/    9/    9
.E NBLP1 20190715 Z DH2136/TAIRG/DIN06/   87/   87/   87
.E NBLP1 20190715 Z DH2136/PLIRG/DIN06/30.03/30.04/30.03
.E NBLP1 20190715 Z DH2136/USIRG/DIN06/    6/    8/    4
.E NBLP1 20190715 Z DH2136/UDIRG/DIN06/  330/  331/  342
.E NBLP1 20190715 Z DH2136/UGIRG/DIN06/   10/   11/   12
.E NBLP1 20190715 Z DH2136/TWIRG/DIN06/   80/   80/   80
.E DELD1 20190715 Z DH2130/TAIRG/DIN06/   85/   85/   85
.E DELD1 20190715 Z DH2130/PLIRG/DIN06/30.04/30.03/30.03
.E DELD1 20190715 Z DH2130/USIRG/DIN06/    4/    6/    5
.E DELD1 20190715 Z DH2130/UDIRG/DIN06/  288/  344/  340
.E DELD1 20190715 Z DH2130/UGIRG/DIN06/   12/   10/   11
.E DELD1 20190715 Z DH2130/TWIRG/DIN06/   81/   81/   81
.A RDYD1 20190715 Z DH2142/TAIRG    85/UGIRG -9999/PLIRG 30.01/UDIRG -9999/USIRG -9999/TWIRG    84/WCIRG -9999
.A BRND1 20190715 Z DH2142/TAIRP -9999/UGIRP -9999/PLIRP 30.05/UDIRP -9999/USIRP -9999/TWIRP -9999/WCIRP -9999
.E LWSD1 20190715 Z DH2154/TAIRP/DIN06/   83/   82
.E LWSD1 20190715 Z DH2154/PLIRP/DIN06/30.04/30.04
.E LWSD1 20190715 Z DH2154/USIRP/DIN06/    6/    5
.E LWSD1 20190715 Z DH2154/UDIRP/DIN06/  127/  175
.E LWSD1 20190715 Z DH2154/UGIRP/DIN06/    8/    9
.E LWSD1 20190715 Z DH2154/TWIRP/DIN06/   80/   80
.E LWSD1 20190715 Z DH2142/TAIRG/DIN06/   82/   83
.E LWSD1 20190715 Z DH2142/PLIRG/DIN06/30.04/30.04
.E LWSD1 20190715 Z DH2142/USIRG/DIN06/    4/    4
.E LWSD1 20190715 Z DH2142/UDIRG/DIN06/  152/  182
.E LWSD1 20190715 Z DH2142/UGIRG/DIN06/    6/    6
.E LWSD1 20190715 Z DH2142/TWIRG/DIN06/   80/   80
.E OCIM2 20190715 Z DH2142/TAIRG/DIN06/   80/   80
.E OCIM2 20190715 Z DH2142/PLIRG/DIN06/30.07/30.07
.E OCIM2 20190715 Z DH2142/USIRG/DIN06/    5/    4
.E OCIM2 20190715 Z DH2142/UDIRG/DIN06/  127/  122
.E OCIM2 20190715 Z DH2142/UGIRG/DIN06/    6/    8
.E OCIM2 20190715 Z DH2142/TWIRG/DIN06/   77/   77
.E BISM2 20190715 Z DH2142/TAIRG/DIN06/   85/-9999/   85
.E BISM2 20190715 Z DH2142/PLIRG/DIN06/30.06/-9999/30.05
.E BISM2 20190715 Z DH2142/USIRG/DIN06/    6/-9999/    5
.E BISM2 20190715 Z DH2142/UDIRG/DIN06/  259/-9999/  261
.E BISM2 20190715 Z DH2142/UGIRG/DIN06/    9/-9999/    6
.E BISM2 20190715 Z DH2142/TWIRG/DIN06/   88/-9999/   89
.E CAMM2 20190715 Z DH2142/TAIRG/DIN06/   86/   86
.E CAMM2 20190715 Z DH2142/PLIRG/DIN06/30.04/30.04
.E CAMM2 20190715 Z DH2142/TWIRG/DIN06/   85/   85
.A TCBM2 20190715 Z DH2142/TAIRG    85/UGIRG     6/PLIRG 30.04/UDIRG   226/USIRG     4/TWIRG    85/WCIRG -9999
.E CHCM2 20190715 Z DH2136/TAIRG/DIN06/   85/   86/   85/   85
.E CHCM2 20190715 Z DH2136/PLIRG/DIN06/30.04/30.04/30.04/30.04
.E CHCM2 20190715 Z DH2136/USIRG/DIN06/    2/    1/    4/    4
.E CHCM2 20190715 Z DH2136/UDIRG/DIN06/  269/  307/  296/  289
.E CHCM2 20190715 Z DH2136/UGIRG/DIN06/    4/    3/    5/    6
.E CHCM2 20190715 Z DH2136/WCIRG/DIN06/ 1340/ 1340/ 1340/ 1340
.E CHCM2 20190715 Z DH2136/TWIRG/DIN06/   85/   84/   85/   84
.E BLTM2 20190715 Z DH2142/TAIRG/DIN06/   84/   84
.E BLTM2 20190715 Z DH2142/PLIRG/DIN06/30.01/30.01
.E BLTM2 20190715 Z DH2142/USIRG/DIN06/    6/    7
.E BLTM2 20190715 Z DH2142/UDIRG/DIN06/  173/  170
.E BLTM2 20190715 Z DH2142/UGIRG/DIN06/   11/   11
.E BLTM2 20190715 Z DH2142/WCIRG/DIN06/10690/10670
.E BLTM2 20190715 Z DH2142/TWIRG/DIN06/   79/   79
.E FSKM2 20190715 Z DH2154/TAIRP/DIN06/   82/-9999/   82
.E FSKM2 20190715 Z DH2154/PLIRP/DIN06/30.03/-9999/30.02
.E FSKM2 20190715 Z DH2154/USIRP/DIN06/   11/-9999/   11
.E FSKM2 20190715 Z DH2154/UDIRP/DIN06/  134/-9999/  133
.E FSKM2 20190715 Z DH2154/UGIRP/DIN06/   13/-9999/   14
.E FSNM2 20190715 Z DH2142/TAIRP/DIN06/   82/   82
.E FSNM2 20190715 Z DH2142/PLIRP/DIN06/30.03/30.03
.E CPVM2 20190715 Z DH2148/TAIRG/DIN06/   84/-9999/   84
.E APAM2 20190715 Z DH2148/TAIRP/DIN06/   84/   85
.E APAM2 20190715 Z DH2148/PLIRP/DIN06/30.02/30.01
.A APAM2 20190715 Z DH2148/TAIRG    84/UGIRG -9999/PLIRG 30.02/UDIRG -9999/USIRG -9999/TWIRG -9999/WCIRG -9999
.E COVM2 20190715 Z DH2200/TAIRP/DIN06/   83/   83
.E COVM2 20190715 Z DH2200/PLIRP/DIN06/30.05/30.05
.E COVM2 20190715 Z DH2200/USIRP/DIN06/    7/    7
.E COVM2 20190715 Z DH2200/UDIRP/DIN06/  166/  176
.E COVM2 20190715 Z DH2200/UGIRP/DIN06/    9/   10
.E SLIM2 20190715 Z DH2154/TAIRP/DIN06/   83/   83
.E SLIM2 20190715 Z DH2154/PLIRP/DIN06/30.02/30.02
.E SLIM2 20190715 Z DH2154/USIRP/DIN06/    6/    7
.E SLIM2 20190715 Z DH2154/UDIRP/DIN06/  106/  103
.E SLIM2 20190715 Z DH2154/UGIRP/DIN06/    9/    8
.E SLIM2 20190715 Z DH2154/TWIRP/DIN06/   84/   84
.E SLIM2 20190715 Z DH2142/TAIRG/DIN06/   83/   83
.E SLIM2 20190715 Z DH2142/PLIRG/DIN06/30.02/30.02
.E SLIM2 20190715 Z DH2142/USIRG/DIN06/    6/    8
.E SLIM2 20190715 Z DH2142/UDIRG/DIN06/   92/   96
.E SLIM2 20190715 Z DH2142/UGIRG/DIN06/    8/    9
.E SLIM2 20190715 Z DH2142/TWIRG/DIN06/   84/   84
.E PPTM2 20190715 Z DH2200/USIRP/DIN06/    4/    4
.E PPTM2 20190715 Z DH2200/UDIRP/DIN06/  336/  331
.E PPTM2 20190715 Z DH2200/UGIRP/DIN06/    5/    5
.E PPTM2 20190715 Z DH2142/USIRG/DIN06/    6/    6
.E PPTM2 20190715 Z DH2142/UDIRG/DIN06/  334/  331
.E PPTM2 20190715 Z DH2142/UGIRG/DIN06/    6/    7
.E WASD2 20190715 Z DH2142/TAIRG/DIN06/   90/   91
.E WASD2 20190715 Z DH2142/PLIRG/DIN06/30.02/30.02
.E WASD2 20190715 Z DH2142/USIRG/DIN06/    4/    2
.E WASD2 20190715 Z DH2142/UDIRG/DIN06/  257/  275
.E WASD2 20190715 Z DH2142/UGIRG/DIN06/    4/    3
.E WASD2 20190715 Z DH2142/TWIRG/DIN06/   83/   83
.E WAHV2 20190715 Z DH2148/TAIRG/DIN06/   83/-9999/   82
.E WAHV2 20190715 Z DH2148/PLIRG/DIN06/30.03/-9999/30.04
.E WAHV2 20190715 Z DH2148/USIRG/DIN06/    6/-9999/    5
.E WAHV2 20190715 Z DH2148/UDIRG/DIN06/  177/-9999/  163
.E WAHV2 20190715 Z DH2148/UGIRG/DIN06/    8/-9999/    8
.E WAHV2 20190715 Z DH2148/TWIRG/DIN06/   89/-9999/   89
.E KPTV2 20190715 Z DH2142/USIRG/DIN06/    3/    0
.E KPTV2 20190715 Z DH2142/UDIRG/DIN06/  187/  164
.E KPTV2 20190715 Z DH2142/UGIRG/DIN06/    4/    3
.E KPTV2 20190715 Z DH2142/TWIRG/DIN06/   83/   83
.E RPLV2 20190715 Z DH2148/PLIRG/DIN06/30.06/-9999/30.06
.A NCDV2 20190715 Z DH2142/TAIRG    90/UGIRG     5/PLIRG 30.00/UDIRG   263/USIRG     2/TWIRG    90/WCIRG -9999
.A LWTV2 20190715 Z DH2142/TAIRG    87/UGIRG     7/PLIRG 30.04/UDIRG    14/USIRG     6/TWIRG    85/WCIRG 15770
.E YKRV2 20190715 Z DH2154/TAIRP/DIN06/   84/   85
.E YKRV2 20190715 Z DH2154/PLIRP/DIN06/30.05/30.05
.E YKRV2 20190715 Z DH2154/USIRP/DIN06/    8/    7
.E YKRV2 20190715 Z DH2154/UDIRP/DIN06/  104/   97
.E YKRV2 20190715 Z DH2154/UGIRP/DIN06/    9/    9
.E YKRV2 20190715 Z DH2148/TAIRG/DIN06/   84/-9999/   85
.E YKRV2 20190715 Z DH2148/PLIRG/DIN06/30.05/-9999/30.05
.E YKRV2 20190715 Z DH2148/USIRG/DIN06/    8/-9999/    7
.E YKRV2 20190715 Z DH2148/UDIRG/DIN06/  101/-9999/   97
.E YKRV2 20190715 Z DH2148/UGIRG/DIN06/    9/-9999/    9
.E YKTV2 20190715 Z DH2148/TAIRP/DIN06/   85/   85/   85
.E YKTV2 20190715 Z DH2148/PLIRP/DIN06/30.03/30.03/30.03
.E YKTV2 20190715 Z DH2148/USIRP/DIN06/    9/    9/    9
.E YKTV2 20190715 Z DH2148/UDIRP/DIN06/   82/   84/   78
.E YKTV2 20190715 Z DH2148/UGIRP/DIN06/   10/   10/   11
.E YKTV2 20190715 Z DH2148/TWIRP/DIN06/   86/   86/   86
.A YKTV2 20190715 Z DH2148/TAIRG    85/UGIRG    10/PLIRG 30.03/UDIRG    82/USIRG     9/TWIRG    86/WCIRG 17300
.E DOMV2 20190715 Z DH2142/TAIRG/DIN06/   87/   86
.E DOMV2 20190715 Z DH2142/PLIRG/DIN06/30.04/30.04
.E DOMV2 20190715 Z DH2142/USIRG/DIN06/    3/    7
.E DOMV2 20190715 Z DH2142/UDIRG/DIN06/  119/  111
.E DOMV2 20190715 Z DH2142/UGIRG/DIN06/    5/   11
.E CRYV2 20190715 Z DH2200/TAIRP/DIN06/   88/   88
.E CRYV2 20190715 Z DH2200/PLIRP/DIN06/30.03/30.03
.E CRYV2 20190715 Z DH2200/USIRP/DIN06/    5/    6
.E CRYV2 20190715 Z DH2200/UDIRP/DIN06/    9/    0
.E CRYV2 20190715 Z DH2200/UGIRP/DIN06/    7/    9
.E SWPV2 20190715 Z DH2142/PLIRG/DIN06/30.04/30.04
.E SWPV2 20190715 Z DH2142/WCIRG/DIN06/28520/28450
.E SWPV2 20190715 Z DH2142/TWIRG/DIN06/   86/   86
.E WDSV2 20190715 Z DH2142/TAIRG/DIN06/   83/   84
.E WDSV2 20190715 Z DH2142/PLIRG/DIN06/30.02/30.02
.E WDSV2 20190715 Z DH2142/USIRG/DIN06/    8/    8
.E WDSV2 20190715 Z DH2142/UDIRG/DIN06/   79/   72
.E WDSV2 20190715 Z DH2142/UGIRG/DIN06/   10/   10
.E CHBV2 20190715 Z DH2142/TAIRG/DIN06/   83/-9999/   83
.E CHBV2 20190715 Z DH2142/PLIRG/DIN06/30.02/-9999/30.01
.E CHBV2 20190715 Z DH2142/USIRG/DIN06/    8/-9999/    7
.E CHBV2 20190715 Z DH2142/UDIRG/DIN06/  109/-9999/  110
.E CHBV2 20190715 Z DH2142/UGIRG/DIN06/   10/-9999/   10
.E CHYV2 20190715 Z DH2154/TAIRP/DIN06/   82/   82
.E CHYV2 20190715 Z DH2154/PLIRP/DIN06/30.04/30.04
.E CHYV2 20190715 Z DH2154/USIRP/DIN06/    6/    7
.E CHYV2 20190715 Z DH2154/UDIRP/DIN06/   72/   79
.E CHYV2 20190715 Z DH2154/UGIRP/DIN06/    8/    8
.E MNPV2 20190715 Z DH2154/TAIRP/DIN06/   92/   92
.E MNPV2 20190715 Z DH2154/PLIRP/DIN06/30.02/30.02
.E MNPV2 20190715 Z DH2154/USIRP/DIN06/    2/    4
.E MNPV2 20190715 Z DH2154/UDIRP/DIN06/  302/  357
.E MNPV2 20190715 Z DH2154/UGIRP/DIN06/    5/    6
.E MNPV2 20190715 Z DH2154/TWIRP/DIN06/   86/   86
.E MNPV2 20190715 Z DH2142/TAIRG/DIN06/   91/-9999/   92
.E MNPV2 20190715 Z DH2142/PLIRG/DIN06/30.02/-9999/30.02
.E MNPV2 20190715 Z DH2142/USIRG/DIN06/    4/-9999/    3
.E MNPV2 20190715 Z DH2142/UDIRG/DIN06/  307/-9999/  320
.E MNPV2 20190715 Z DH2142/UGIRG/DIN06/    8/-9999/    6
.E MNPV2 20190715 Z DH2142/WCIRG/DIN06/26630/-9999/26610
.E MNPV2 20190715 Z DH2142/TWIRG/DIN06/   86/-9999/   86
.E DUKN7 20190715 Z DH2148/TAIRG/DIN06/   84/-9999/   85
.E DUKN7 20190715 Z DH2148/PLIRG/DIN06/30.04/-9999/30.04
.E DUKN7 20190715 Z DH2148/USIRG/DIN06/    7/-9999/    6
.E DUKN7 20190715 Z DH2148/UDIRG/DIN06/   77/-9999/   74
.E DUKN7 20190715 Z DH2148/UGIRG/DIN06/    9/-9999/    7
.E DUKN7 20190715 Z DH2148/TWIRG/DIN06/   82/-9999/   82
.E ORIN7 20190715 Z DH2136/TAIRG/DIN06/   84/   84/-9999/   84
.E ORIN7 20190715 Z DH2136/PLIRG/DIN06/30.04/30.04/-9999/30.04
.E ORIN7 20190715 Z DH2136/USIRG/DIN06/    6/    7/-9999/    6
.E ORIN7 20190715 Z DH2136/UDIRG/DIN06/   41/   42/-9999/   47
.E ORIN7 20190715 Z DH2136/UGIRG/DIN06/    8/    9/-9999/    9
.E ORIN7 20190715 Z DH2136/TWIRG/DIN06/   87/   87/-9999/   87
.E HCGN7 20190715 Z DH2136/TAIRG/DIN06/   86/   86/   86
.E HCGN7 20190715 Z DH2136/PLIRG/DIN06/30.04/30.03/30.03
.E HCGN7 20190715 Z DH2136/USIRG/DIN06/    4/    3/    3
.E HCGN7 20190715 Z DH2136/UDIRG/DIN06/  189/  195/  196
.E HCGN7 20190715 Z DH2136/UGIRG/DIN06/    6/    6/    5
.E HCGN7 20190715 Z DH2136/TWIRG/DIN06/   83/   83/   83
.E BFTN7 20190715 Z DH2154/TAIRP/DIN06/   86/   85
.E BFTN7 20190715 Z DH2154/PLIRP/DIN06/30.06/30.06
.E BFTN7 20190715 Z DH2154/USIRP/DIN06/    8/    8
.E BFTN7 20190715 Z DH2154/UDIRP/DIN06/  177/  176
.E BFTN7 20190715 Z DH2154/UGIRP/DIN06/    9/    9
.E BFTN7 20190715 Z DH2154/TWIRP/DIN06/   87/   87
.E WLON7 20190715 Z DH2136/TAIRG/DIN06/   92/   91/   91
.E WLON7 20190715 Z DH2136/PLIRG/DIN06/30.02/30.02/30.02
.E WLON7 20190715 Z DH2136/TWIRG/DIN06/   86/   86/   86
.A JMPN7 20190715 Z DH2148/TAIRG    87/UGIRG    12/PLIRG 30.02/UDIRG   175/USIRG    11/TWIRG    83/WCIRG -9999
.E MROS1 20190715 Z DH2154/TAIRP/DIN06/   85/   85
.E MROS1 20190715 Z DH2154/PLIRP/DIN06/30.14/30.14
.A MROS1 20190715 Z DH2148/TAIRG    85/UGIRG -9999/PLIRG 30.14/UDIRG -9999/USIRG -9999/TWIRG -9999/WCIRG -9999
.A CHTS1 20190715 Z DH2148/TAIRG    83/UGIRG     8/PLIRG 30.05/UDIRG   225/USIRG     6/TWIRG    87/WCIRG -9999
.E FPKG1 20190715 Z DH2142/TAIRG/DIN06/   92/   92
.E FPKG1 20190715 Z DH2142/PLIRG/DIN06/30.06/30.06
.E FPKG1 20190715 Z DH2142/USIRG/DIN06/    2/    4
.E FPKG1 20190715 Z DH2142/UDIRG/DIN06/   83/  113
.E FPKG1 20190715 Z DH2142/UGIRG/DIN06/    4/    8
.E FPKG1 20190715 Z DH2142/TWIRG/DIN06/   86/   86
.E FRDF1 20190715 Z DH2148/TAIRG/DIN06/   97/-9999/   95
.E FRDF1 20190715 Z DH2148/PLIRG/DIN06/30.07/-9999/30.07
.E FRDF1 20190715 Z DH2148/TWIRG/DIN06/   85/-9999/   85
.E NFDF1 20190715 Z DH2148/TAIRG/DIN06/   92/-9999/   91
.E NFDF1 20190715 Z DH2148/PLIRG/DIN06/30.11/-9999/30.11
.E NFDF1 20190715 Z DH2148/USIRG/DIN06/    4/-9999/    4
.E NFDF1 20190715 Z DH2148/UDIRG/DIN06/   78/-9999/  125
.E NFDF1 20190715 Z DH2148/UGIRG/DIN06/    5/-9999/    4
.E MYPF1 20190715 Z DH2136/TAIRG/DIN06/   91/   91/   91/-9999/   90
.E MYPF1 20190715 Z DH2136/PLIRG/DIN06/30.07/30.07/30.07/-9999/30.07
.E MYPF1 20190715 Z DH2136/USIRG/DIN06/    9/    6/    6/-9999/   10
.E MYPF1 20190715 Z DH2136/UDIRG/DIN06/  126/  138/  139/-9999/  131
.E MYPF1 20190715 Z DH2136/UGIRG/DIN06/   11/    9/    9/-9999/   12
.E MYPF1 20190715 Z DH2136/WCIRG/DIN06/14010/14230/14310/-9999/14950
.E MYPF1 20190715 Z DH2136/TWIRG/DIN06/   85/   85/   85/-9999/   85
.E DMSF1 20190715 Z DH2148/WCIRG/DIN06/19270/-9999/18950
.E DMSF1 20190715 Z DH2148/TWIRG/DIN06/   87/-9999/   87
.E LTJF1 20190715 Z DH2154/TAIRP/DIN06/   92/   92
.E BLIF1 20190715 Z DH2148/TAIRG/DIN06/   94/-9999/   93
.E BLIF1 20190715 Z DH2148/PLIRG/DIN06/30.09/-9999/30.09
.E BLIF1 20190715 Z DH2148/USIRG/DIN06/    6/-9999/    8
.E BLIF1 20190715 Z DH2148/UDIRG/DIN06/  106/-9999/  125
.E BLIF1 20190715 Z DH2148/UGIRG/DIN06/   10/-9999/   10
.E RCYF1 20190715 Z DH2154/TWIRP/DIN06/   90/   90
.E RCYF1 20190715 Z DH2148/WCIRG/DIN06/ 1120/-9999/ 1140
.E RCYF1 20190715 Z DH2148/TWIRG/DIN06/   89/-9999/   90
.E TRDF1 20190715 Z DH2154/TAIRP/DIN06/   85/   85
.E TRDF1 20190715 Z DH2154/PLIRP/DIN06/30.13/30.12
.E TRDF1 20190715 Z DH2154/USIRP/DIN06/    6/    5
.E TRDF1 20190715 Z DH2154/UDIRP/DIN06/  103/   89
.E TRDF1 20190715 Z DH2154/UGIRP/DIN06/    8/    7
.E TRDF1 20190715 Z DH2154/TWIRP/DIN06/   80/   80
.E TRDF1 20190715 Z DH2148/TAIRG/DIN06/   85/-9999/   85
.E TRDF1 20190715 Z DH2148/PLIRG/DIN06/30.12/-9999/30.12
.E TRDF1 20190715 Z DH2148/USIRG/DIN06/    6/-9999/    6
.E TRDF1 20190715 Z DH2148/UDIRG/DIN06/   91/-9999/  103
.E TRDF1 20190715 Z DH2148/UGIRG/DIN06/    7/-9999/    8
.E TRDF1 20190715 Z DH2148/TWIRG/DIN06/   80/-9999/   80
.E LKWF1 20190715 Z DH2154/TAIRP/DIN06/   85/   85
.E LKWF1 20190715 Z DH2154/PLIRP/DIN06/30.09/30.09
.E LKWF1 20190715 Z DH2154/USIRP/DIN06/    8/   11
.E LKWF1 20190715 Z DH2154/UDIRP/DIN06/   92/   86
.E LKWF1 20190715 Z DH2154/UGIRP/DIN06/   11/   12
.E LKWF1 20190715 Z DH2154/TWIRP/DIN06/   87/   87
.E LKWF1 20190715 Z DH2142/TAIRG/DIN06/-9999/   85
.E LKWF1 20190715 Z DH2142/PLIRG/DIN06/-9999/30.09
.E LKWF1 20190715 Z DH2142/USIRG/DIN06/    9/    9
.E LKWF1 20190715 Z DH2142/UDIRG/DIN06/  100/   93
.E LKWF1 20190715 Z DH2142/UGIRG/DIN06/   10/   11
.E LKWF1 20190715 Z DH2142/TWIRG/DIN06/-9999/   87
.A PEGF1 20190715 Z DH2142/TAIRG    88/UGIRG    16/PLIRG 30.06/UDIRG    78/USIRG    14/TWIRG   102/WCIRG -9999
.E VAKF1 20190715 Z DH2142/TAIRG/DIN06/   86/   86
.E VAKF1 20190715 Z DH2142/PLIRG/DIN06/30.04/30.04
.E VAKF1 20190715 Z DH2142/USIRG/DIN06/   11/    9
.E VAKF1 20190715 Z DH2142/UDIRG/DIN06/   62/   55
.E VAKF1 20190715 Z DH2142/UGIRG/DIN06/   13/   13
.E VAKF1 20190715 Z DH2142/TWIRG/DIN06/   89/   89
.E VCAF1 20190715 Z DH2148/TAIRG/DIN06/   87/-9999/   87
.E VCAF1 20190715 Z DH2148/PLIRG/DIN06/30.04/-9999/30.04
.E VCAF1 20190715 Z DH2148/TWIRG/DIN06/   89/-9999/   89
.E BARA9 20190715 Z DH2142/TAIRG/DIN06/   83/   83
.E BARA9 20190715 Z DH2142/PLIRG/DIN06/29.97/29.97
.E BARA9 20190715 Z DH2142/TWIRG/DIN06/   86/   86



USA.gov is the U.S. government's official web portal to all federal, state and local government web resources and services.